createdAt,value
2022-08-17T00:00:43.466Z,22.10
2022-08-17T00:03:36.050Z,22.00
2022-08-17T00:06:28.114Z,22.00
2022-08-17T00:09:05.345Z,22.00
2022-08-17T00:11:43.304Z,21.90
2022-08-17T00:14:30.983Z,21.90
2022-08-17T00:16:58.956Z,22.00
2022-08-17T00:19:27.758Z,22.00
2022-08-17T00:22:31.530Z,22.00
2022-08-17T00:24:48.575Z,22.10
2022-08-17T00:27:16.118Z,22.10
2022-08-17T00:29:45.536Z,22.10
2022-08-17T00:33:14.623Z,22.10
2022-08-17T00:35:11.257Z,22.00
2022-08-17T00:37:39.401Z,21.90
2022-08-17T00:40:13.960Z,21.80
2022-08-17T00:42:45.891Z,21.70
2022-08-17T00:45:18.353Z,21.60
2022-08-17T00:47:47.090Z,21.70
2022-08-17T00:50:19.687Z,21.70
2022-08-17T00:52:58.878Z,21.70
2022-08-17T00:55:28.024Z,21.60
2022-08-17T00:58:05.725Z,21.60
2022-08-17T01:00:46.183Z,21.60
2022-08-17T01:03:26.739Z,21.50
2022-08-17T01:06:02.468Z,21.40
2022-08-17T01:08:33.048Z,21.40
2022-08-17T01:11:02.759Z,21.30
2022-08-17T01:13:43.377Z,21.40
2022-08-17T01:16:26.747Z,21.40
2022-08-17T01:19:21.258Z,21.40
2022-08-17T01:22:18.576Z,21.30
2022-08-17T01:25:00.921Z,21.30
2022-08-17T01:27:30.011Z,21.30
2022-08-17T01:30:57.465Z,21.30
2022-08-17T01:32:58.414Z,21.20
2022-08-17T01:35:26.329Z,21.20
2022-08-17T01:37:54.118Z,21.10
2022-08-17T01:40:46.510Z,21.10
2022-08-17T01:43:35.925Z,21.10
2022-08-17T01:46:04.317Z,21.00
2022-08-17T01:48:39.648Z,21.00
2022-08-17T01:51:08.177Z,21.00
2022-08-17T01:53:47.477Z,20.90
2022-08-17T01:56:23.344Z,20.90
2022-08-17T01:58:52.693Z,20.90
2022-08-17T02:01:27.844Z,20.80
2022-08-17T02:04:00.866Z,20.70
2022-08-17T02:06:45.227Z,20.70
2022-08-17T02:09:29.738Z,20.70
2022-08-17T02:12:37.679Z,20.60
2022-08-17T02:14:48.674Z,20.50
2022-08-17T02:17:16.408Z,20.50
2022-08-17T02:19:43.983Z,20.40
2022-08-17T02:22:12.110Z,20.40
2022-08-17T02:25:00.688Z,20.30
2022-08-17T02:27:28.266Z,20.20
2022-08-17T02:29:55.829Z,20.10
2022-08-17T02:32:27.916Z,20.00
2022-08-17T02:35:00.413Z,20.00
2022-08-17T02:37:30.373Z,19.90
2022-08-17T02:40:01.401Z,19.80
2022-08-17T02:42:42.919Z,19.70
2022-08-17T02:45:22.960Z,19.70
2022-08-17T02:47:52.422Z,19.60
2022-08-17T02:50:24.545Z,19.60
2022-08-17T02:53:01.612Z,19.60
2022-08-17T02:55:41.227Z,19.60
2022-08-17T02:58:11.661Z,19.70
2022-08-17T03:00:48.757Z,19.70
2022-08-17T03:03:21.165Z,19.70
2022-08-17T03:05:51.518Z,19.70
2022-08-17T03:08:20.265Z,19.60
2022-08-17T03:10:48.937Z,19.60
2022-08-17T03:13:17.018Z,19.60
2022-08-17T03:15:49.080Z,19.60
2022-08-17T03:18:28.604Z,19.80
2022-08-17T03:21:04.523Z,19.90
2022-08-17T03:23:33.843Z,20.00
2022-08-17T03:26:01.559Z,20.10
2022-08-17T03:28:29.815Z,20.00
2022-08-17T03:30:57.382Z,20.00
2022-08-17T03:33:25.085Z,19.90
2022-08-17T03:35:53.132Z,19.90
2022-08-17T03:38:21.982Z,19.80
2022-08-17T03:40:58.721Z,19.80
2022-08-17T03:43:33.490Z,19.70
2022-08-17T03:46:28.123Z,19.70
2022-08-17T03:49:26.655Z,19.70
2022-08-17T03:52:16.299Z,19.70
2022-08-17T03:55:04.073Z,19.60
2022-08-17T03:57:32.572Z,19.60
2022-08-17T04:00:00.350Z,19.50
2022-08-17T04:02:37.076Z,19.50
2022-08-17T04:05:23.807Z,19.50
2022-08-17T04:07:53.188Z,19.40
2022-08-17T04:10:24.709Z,19.40
2022-08-17T04:12:55.894Z,19.30
2022-08-17T04:15:24.238Z,19.30
2022-08-17T04:17:52.989Z,19.30
2022-08-17T04:20:24.737Z,19.30
2022-08-17T04:23:11.649Z,19.20
2022-08-17T04:25:49.654Z,19.30
2022-08-17T04:28:21.377Z,19.30
2022-08-17T04:30:49.016Z,19.30
2022-08-17T04:33:24.300Z,19.30
2022-08-17T04:36:01.716Z,19.30
2022-08-17T04:38:37.263Z,19.30
2022-08-17T04:41:26.156Z,19.40
2022-08-17T04:43:58.297Z,19.40
2022-08-17T04:46:35.646Z,19.40
2022-08-17T04:49:11.122Z,19.40
2022-08-17T04:51:54.485Z,19.50
2022-08-17T04:54:24.266Z,19.50
2022-08-17T04:56:52.868Z,19.50
2022-08-17T04:59:23.407Z,19.60
2022-08-17T05:01:52.805Z,19.70
2022-08-17T05:04:33.825Z,20.00
2022-08-17T05:07:04.739Z,20.10
2022-08-17T05:09:33.038Z,20.20
2022-08-17T05:12:04.491Z,20.30
2022-08-17T05:14:33.182Z,20.40
2022-08-17T05:17:09.384Z,20.50
2022-08-17T05:19:39.054Z,20.50
2022-08-17T05:22:06.980Z,20.70
2022-08-17T05:24:42.756Z,20.80
2022-08-17T05:27:20.252Z,20.90
2022-08-17T05:29:47.984Z,21.20
2022-08-17T05:32:37.897Z,21.30
2022-08-17T05:35:03.773Z,21.40
2022-08-17T05:37:31.381Z,21.60
2022-08-17T05:39:58.920Z,21.60
2022-08-17T05:42:26.506Z,21.80
2022-08-17T05:44:59.065Z,21.80
2022-08-17T05:47:28.547Z,21.90
2022-08-17T05:49:56.699Z,22.00
2022-08-17T05:53:04.470Z,22.20
2022-08-17T05:55:57.413Z,22.40
2022-08-17T05:58:59.234Z,22.50
2022-08-17T06:02:35.839Z,22.50
2022-08-17T06:05:40.691Z,22.70
2022-08-17T06:08:52.267Z,22.90
2022-08-17T06:11:44.251Z,23.10
2022-08-17T06:14:44.363Z,23.30
2022-08-17T06:17:28.717Z,23.40
2022-08-17T06:20:15.720Z,23.50
2022-08-17T06:23:04.675Z,23.80
2022-08-17T06:25:49.844Z,24.10
2022-08-17T06:28:41.797Z,24.40
2022-08-17T06:31:29.404Z,24.60
2022-08-17T06:34:03.054Z,24.80
2022-08-17T06:37:12.574Z,24.60
2022-08-17T06:40:45.717Z,24.90
2022-08-17T06:44:43.526Z,24.80
2022-08-17T06:47:59.518Z,24.80
2022-08-17T06:50:55.570Z,24.80
2022-08-17T06:54:05.595Z,24.90
2022-08-17T06:57:02.661Z,24.90
2022-08-17T06:59:57.570Z,25.10
2022-08-17T07:03:25.135Z,25.00
2022-08-17T07:06:03.444Z,24.80
2022-08-17T07:09:34.598Z,24.70
2022-08-17T07:12:29.909Z,24.50
2022-08-17T07:15:27.302Z,24.90
2022-08-17T07:17:56.225Z,24.50
2022-08-17T07:20:24.162Z,24.40
2022-08-17T07:23:14.672Z,24.60
2022-08-17T07:25:42.868Z,24.60
2022-08-17T07:28:10.396Z,24.60
2022-08-17T07:30:52.075Z,24.60
2022-08-17T07:33:33.198Z,24.70
2022-08-17T07:36:01.774Z,24.20
2022-08-17T07:38:35.703Z,24.30
2022-08-17T07:41:11.353Z,24.30
2022-08-17T07:43:41.622Z,24.40
2022-08-17T07:47:12.773Z,24.40
2022-08-17T07:49:46.611Z,24.60
2022-08-17T07:52:50.692Z,24.40
2022-08-17T07:55:35.051Z,24.60
2022-08-17T07:58:03.502Z,24.70
2022-08-17T08:00:33.735Z,24.80
2022-08-17T08:03:24.662Z,24.90
2022-08-17T08:06:03.286Z,25.00
2022-08-17T08:08:56.206Z,25.20
2022-08-17T08:11:40.181Z,25.40
2022-08-17T08:15:17.826Z,25.00
2022-08-17T08:18:05.480Z,25.60
2022-08-17T08:20:59.724Z,26.20
2022-08-17T08:23:37.332Z,26.20
2022-08-17T08:26:55.533Z,26.50
2022-08-17T08:29:49.123Z,25.90
2022-08-17T08:33:04.289Z,25.70
2022-08-17T08:36:56.848Z,26.10
2022-08-17T08:40:25.852Z,26.10
2022-08-17T08:43:53.049Z,26.40
2022-08-17T08:47:02.014Z,26.50
2022-08-17T08:50:07.874Z,26.40
2022-08-17T08:53:49.100Z,26.40
2022-08-17T08:57:11.526Z,26.40
2022-08-17T09:00:20.168Z,25.70
2022-08-17T09:04:21.347Z,25.30
2022-08-17T09:07:41.209Z,25.30
2022-08-17T09:11:02.533Z,26.00
2022-08-17T09:14:21.824Z,26.30
2022-08-17T09:17:29.918Z,26.50
2022-08-17T09:20:28.529Z,26.60
2022-08-17T09:23:24.220Z,26.80
2022-08-17T09:26:39.485Z,26.60
2022-08-17T09:29:16.234Z,26.60
2022-08-17T09:31:57.497Z,26.40
2022-08-17T09:34:48.441Z,26.30
2022-08-17T09:38:11.152Z,26.20
2022-08-17T09:41:24.379Z,25.80
2022-08-17T09:44:31.016Z,25.70
2022-08-17T09:47:04.330Z,26.00
2022-08-17T09:49:56.669Z,26.40
2022-08-17T09:52:30.671Z,25.90
2022-08-17T09:55:01.857Z,25.20
2022-08-17T09:58:12.325Z,25.00
2022-08-17T10:01:01.845Z,24.80
2022-08-17T10:04:20.077Z,24.80
2022-08-17T10:07:19.922Z,24.90
2022-08-17T10:10:42.594Z,25.30
2022-08-17T10:14:37.015Z,25.30
2022-08-17T10:18:18.744Z,25.20
2022-08-17T10:21:33.850Z,25.60
2022-08-17T10:25:01.997Z,25.70
2022-08-17T10:27:58.112Z,25.80
2022-08-17T10:30:34.929Z,25.80
2022-08-17T10:33:33.349Z,26.00
2022-08-17T10:36:37.967Z,26.10
2022-08-17T10:39:28.043Z,26.00
2022-08-17T10:42:16.226Z,25.90
2022-08-17T10:45:26.285Z,25.20
2022-08-17T10:48:38.349Z,25.20
2022-08-17T10:51:40.206Z,25.10
2022-08-17T10:54:48.109Z,25.00
2022-08-17T10:57:31.832Z,24.90
2022-08-17T11:00:24.177Z,24.80
2022-08-17T11:02:58.615Z,24.80
2022-08-17T11:06:05.557Z,24.60
2022-08-17T11:10:01.129Z,24.50
2022-08-17T11:13:01.674Z,24.40
2022-08-17T11:16:29.000Z,24.20
2022-08-17T11:20:02.594Z,24.10
2022-08-17T11:23:05.803Z,24.00
2022-08-17T11:25:59.099Z,24.10
2022-08-17T11:28:44.851Z,24.10
2022-08-17T11:31:58.565Z,23.70
2022-08-17T11:34:31.795Z,23.60
2022-08-17T11:37:35.992Z,23.40
2022-08-17T11:40:35.647Z,23.50
2022-08-17T11:44:02.860Z,23.30
2022-08-17T11:47:38.487Z,23.20
2022-08-17T11:51:02.670Z,23.10
2022-08-17T11:53:39.351Z,23.20
2022-08-17T11:56:31.849Z,23.40
2022-08-17T11:59:00.954Z,23.50
2022-08-17T12:01:31.618Z,23.60
2022-08-17T12:04:32.786Z,23.60
2022-08-17T12:07:19.936Z,23.80
2022-08-17T12:09:56.856Z,23.90
2022-08-17T12:12:35.977Z,23.90
2022-08-17T12:15:14.309Z,23.80
2022-08-17T12:17:46.712Z,23.80
2022-08-17T12:20:21.571Z,23.60
2022-08-17T12:23:08.027Z,23.70
2022-08-17T12:26:19.915Z,23.70
2022-08-17T12:29:18.327Z,23.80
2022-08-17T12:32:07.216Z,23.90
2022-08-17T12:34:45.660Z,23.90
2022-08-17T12:37:27.650Z,23.90
2022-08-17T12:40:23.347Z,23.90
2022-08-17T12:43:27.006Z,24.10
2022-08-17T12:46:13.306Z,24.20
2022-08-17T12:48:58.971Z,24.70
2022-08-17T12:51:29.278Z,24.80
2022-08-17T12:53:57.711Z,24.50
2022-08-17T12:56:25.763Z,24.10
2022-08-17T12:58:56.511Z,24.10
2022-08-17T13:01:26.288Z,24.10
2022-08-17T13:03:59.808Z,24.20
2022-08-17T13:06:37.056Z,24.10
2022-08-17T13:09:33.590Z,24.00
2022-08-17T13:12:08.571Z,24.20
2022-08-17T13:14:36.412Z,24.20
2022-08-17T13:17:12.659Z,24.30
2022-08-17T13:19:52.008Z,24.40
2022-08-17T13:22:26.765Z,24.60
2022-08-17T13:25:10.851Z,24.70
2022-08-17T13:28:00.607Z,24.80
2022-08-17T13:30:35.728Z,24.80
2022-08-17T13:33:45.202Z,24.80
2022-08-17T13:36:34.989Z,24.70
2022-08-17T13:39:25.867Z,24.50
2022-08-17T13:41:56.185Z,24.30
2022-08-17T13:44:39.439Z,24.20
2022-08-17T13:47:20.532Z,24.20
2022-08-17T13:49:49.522Z,24.30
2022-08-17T13:52:43.513Z,24.70
2022-08-17T13:55:24.744Z,24.80
2022-08-17T13:58:03.599Z,25.10
2022-08-17T14:00:37.072Z,25.70
2022-08-17T14:03:06.637Z,26.00
2022-08-17T14:05:38.238Z,25.70
2022-08-17T14:08:07.030Z,25.80
2022-08-17T14:10:36.675Z,26.00
2022-08-17T14:13:07.493Z,26.00
2022-08-17T14:15:54.563Z,26.10
2022-08-17T14:18:55.221Z,26.00
2022-08-17T14:21:11.123Z,26.00
2022-08-17T14:23:39.405Z,26.10
2022-08-17T14:26:08.840Z,26.20
2022-08-17T14:28:38.830Z,26.30
2022-08-17T14:31:22.681Z,26.80
2022-08-17T14:33:50.265Z,26.80
2022-08-17T14:36:18.296Z,26.30
2022-08-17T14:38:45.854Z,25.70
2022-08-17T14:41:18.731Z,25.30
2022-08-17T14:43:53.573Z,25.00
2022-08-17T14:46:21.374Z,25.30
2022-08-17T14:48:51.731Z,25.60
2022-08-17T14:51:23.862Z,25.70
2022-08-17T14:53:51.415Z,25.60
2022-08-17T14:56:19.509Z,25.40
2022-08-17T14:58:47.034Z,25.10
2022-08-17T15:01:15.320Z,25.00
2022-08-17T15:03:43.055Z,25.20
2022-08-17T15:06:14.715Z,25.30
2022-08-17T15:08:44.314Z,25.20
2022-08-17T15:11:14.528Z,25.10
2022-08-17T15:13:52.279Z,25.20
2022-08-17T15:16:20.961Z,25.20
2022-08-17T15:18:49.168Z,25.10
2022-08-17T15:21:18.269Z,24.80
2022-08-17T15:23:46.325Z,24.80
2022-08-17T15:26:14.073Z,24.80
2022-08-17T15:28:41.654Z,25.00
2022-08-17T15:31:09.170Z,25.20
2022-08-17T15:33:36.740Z,25.30
2022-08-17T15:36:08.577Z,25.40
2022-08-17T15:38:40.653Z,25.50
2022-08-17T15:41:18.326Z,25.80
2022-08-17T15:43:52.057Z,26.00
2022-08-17T15:46:25.959Z,25.90
2022-08-17T15:49:00.445Z,25.60
2022-08-17T15:51:35.924Z,25.40
2022-08-17T15:54:22.347Z,25.60
2022-08-17T15:56:51.278Z,25.70
2022-08-17T15:59:19.507Z,25.60
2022-08-17T16:03:14.192Z,25.60
2022-08-17T16:04:34.641Z,25.60
2022-08-17T16:07:02.177Z,25.70
2022-08-17T16:09:29.711Z,25.50
2022-08-17T16:11:57.318Z,25.20
2022-08-17T16:14:32.331Z,25.00
2022-08-17T16:17:02.111Z,25.00
2022-08-17T16:19:29.564Z,25.00
2022-08-17T16:21:57.407Z,25.20
2022-08-17T16:24:25.417Z,25.00
2022-08-17T16:26:53.541Z,24.80
2022-08-17T16:29:21.833Z,24.80
2022-08-17T16:31:50.242Z,24.60
2022-08-17T16:34:19.084Z,24.60
2022-08-17T16:36:54.996Z,24.60
2022-08-17T16:39:33.181Z,24.70
2022-08-17T16:42:02.801Z,24.70
2022-08-17T16:44:32.575Z,24.70
2022-08-17T16:47:03.400Z,24.90
2022-08-17T16:49:37.397Z,24.90
2022-08-17T16:52:12.700Z,25.00
2022-08-17T16:54:45.515Z,24.80
2022-08-17T16:57:17.546Z,24.60
2022-08-17T16:59:50.341Z,24.50
2022-08-17T17:02:37.293Z,24.50
2022-08-17T17:05:55.199Z,24.40
2022-08-17T17:08:44.597Z,24.30
2022-08-17T17:11:54.525Z,24.10
2022-08-17T17:14:43.438Z,23.90
2022-08-17T17:17:39.001Z,23.80
2022-08-17T17:20:24.496Z,23.80
2022-08-17T17:23:34.411Z,23.80
2022-08-17T17:26:51.710Z,23.80
2022-08-17T17:30:08.276Z,23.80
2022-08-17T17:33:09.590Z,23.80
2022-08-17T17:36:07.011Z,23.70
2022-08-17T17:39:00.219Z,23.60
2022-08-17T17:41:54.993Z,23.50
2022-08-17T17:44:43.657Z,23.40
2022-08-17T17:47:15.250Z,23.30
2022-08-17T17:49:50.633Z,23.30
2022-08-17T17:52:54.814Z,23.20
2022-08-17T17:56:34.351Z,23.10
2022-08-17T18:00:02.263Z,23.00
2022-08-17T18:03:17.820Z,22.90
2022-08-17T18:06:39.820Z,22.80
2022-08-17T18:10:13.653Z,22.80
2022-08-17T18:13:53.504Z,22.70
2022-08-17T18:16:21.293Z,22.60
2022-08-17T18:18:52.464Z,22.50
2022-08-17T18:21:38.085Z,22.40
2022-08-17T18:24:10.688Z,22.40
2022-08-17T18:26:59.400Z,22.20
2022-08-17T18:29:40.538Z,22.20
2022-08-17T18:32:44.529Z,22.10
2022-08-17T18:35:11.934Z,22.00
2022-08-17T18:38:27.526Z,21.90
2022-08-17T18:41:26.506Z,21.90
2022-08-17T18:44:42.348Z,21.80
2022-08-17T18:47:29.677Z,21.70
2022-08-17T18:50:43.921Z,21.60
2022-08-17T18:54:39.852Z,21.50
2022-08-17T18:57:12.367Z,21.50
2022-08-17T18:59:48.679Z,21.40
2022-08-17T19:02:43.873Z,21.30
2022-08-17T19:05:36.853Z,21.20
2022-08-17T19:08:30.548Z,21.20
2022-08-17T19:11:09.715Z,21.10
2022-08-17T19:14:16.688Z,21.10
2022-08-17T19:17:07.556Z,21.00
2022-08-17T19:20:10.813Z,20.90
2022-08-17T19:23:33.612Z,20.80
2022-08-17T19:26:07.070Z,20.80
2022-08-17T19:30:05.507Z,20.70
2022-08-17T19:32:36.595Z,20.60
2022-08-17T19:35:17.145Z,20.60
2022-08-17T19:38:36.358Z,20.50
2022-08-17T19:42:04.814Z,20.50
2022-08-17T19:45:24.796Z,20.30
2022-08-17T19:48:45.675Z,20.30
2022-08-17T19:52:00.841Z,20.20
2022-08-17T19:55:04.833Z,20.20
2022-08-17T19:58:21.616Z,20.20
2022-08-17T20:00:54.722Z,20.20
2022-08-17T20:03:34.836Z,20.10
2022-08-17T20:06:13.826Z,20.10
2022-08-17T20:09:22.308Z,20.10
2022-08-17T20:12:04.093Z,20.10
2022-08-17T20:15:12.468Z,20.10
2022-08-17T20:17:48.018Z,20.10
2022-08-17T20:21:10.361Z,20.20
2022-08-17T20:25:06.460Z,20.20
2022-08-17T20:28:05.640Z,20.20
2022-08-17T20:30:43.697Z,20.10
2022-08-17T20:33:37.758Z,20.10
2022-08-17T20:36:24.931Z,20.00
2022-08-17T20:38:59.212Z,19.90
2022-08-17T20:41:31.051Z,19.80
2022-08-17T20:43:59.021Z,19.80
2022-08-17T20:46:38.539Z,19.90
2022-08-17T20:49:15.655Z,19.80
2022-08-17T20:52:36.376Z,19.80
2022-08-17T20:55:05.161Z,19.70
2022-08-17T20:57:32.648Z,19.60
2022-08-17T21:00:28.075Z,19.60
2022-08-17T21:03:49.191Z,19.60
2022-08-17T21:06:24.195Z,19.60
2022-08-17T21:09:13.646Z,19.60
2022-08-17T21:12:04.987Z,19.60
2022-08-17T21:15:03.737Z,19.50
2022-08-17T21:18:41.831Z,19.50
2022-08-17T21:22:01.830Z,19.40
2022-08-17T21:25:28.052Z,19.30
2022-08-17T21:29:01.136Z,19.30
2022-08-17T21:32:15.871Z,19.30
2022-08-17T21:35:28.588Z,19.20
2022-08-17T21:38:05.161Z,19.20
2022-08-17T21:40:36.198Z,19.20
2022-08-17T21:43:34.120Z,19.10
2022-08-17T21:46:36.948Z,19.10
2022-08-17T21:49:16.810Z,19.00
2022-08-17T21:51:56.839Z,19.00
2022-08-17T21:54:47.374Z,19.00
2022-08-17T21:57:29.566Z,18.90
2022-08-17T22:00:16.029Z,18.80
2022-08-17T22:02:55.466Z,18.80
2022-08-17T22:05:40.295Z,18.70
2022-08-17T22:08:23.177Z,18.60
2022-08-17T22:11:02.179Z,18.60
2022-08-17T22:13:30.134Z,18.60
2022-08-17T22:16:29.217Z,18.50
2022-08-17T22:18:59.662Z,18.50
2022-08-17T22:21:28.243Z,18.50
2022-08-17T22:24:21.294Z,18.50
2022-08-17T22:27:13.908Z,18.50
2022-08-17T22:29:58.511Z,18.40
2022-08-17T22:32:49.420Z,18.50
2022-08-17T22:35:41.700Z,18.50
2022-08-17T22:38:21.447Z,18.50
2022-08-17T22:41:34.420Z,18.50
2022-08-17T22:44:48.209Z,18.40
2022-08-17T22:47:16.360Z,18.40
2022-08-17T22:50:00.289Z,18.40
2022-08-17T22:53:15.923Z,18.40
2022-08-17T22:56:15.940Z,18.40
2022-08-17T22:59:16.209Z,18.40
2022-08-17T23:02:15.693Z,18.30
2022-08-17T23:05:16.961Z,18.20
2022-08-17T23:07:51.089Z,18.10
2022-08-17T23:10:18.865Z,18.10
2022-08-17T23:12:46.652Z,18.10
2022-08-17T23:15:19.851Z,18.10
2022-08-17T23:17:47.863Z,18.10
2022-08-17T23:20:17.683Z,18.00
2022-08-17T23:22:51.896Z,17.90
2022-08-17T23:25:33.695Z,17.80
2022-08-17T23:28:06.270Z,17.80
2022-08-17T23:30:48.419Z,17.80
2022-08-17T23:33:39.289Z,17.90
2022-08-17T23:36:15.051Z,17.90
2022-08-17T23:38:46.676Z,17.90
2022-08-17T23:41:31.933Z,17.90
2022-08-17T23:44:02.187Z,17.80
2022-08-17T23:46:29.696Z,17.70
2022-08-17T23:48:57.251Z,17.70
2022-08-17T23:51:35.776Z,17.70
2022-08-17T23:54:27.048Z,17.70
2022-08-17T23:56:54.907Z,17.70
2022-08-17T23:59:24.061Z,17.70
